createdAt,value
2022-12-14T00:00:32.702Z,-6.17
2022-12-14T00:05:35.021Z,-6.22
2022-12-14T00:10:38.231Z,-6.32
2022-12-14T00:15:52.321Z,-6.38
2022-12-14T00:21:03.206Z,-6.40
2022-12-14T00:26:11.637Z,-6.41
2022-12-14T00:31:13.616Z,-6.46
2022-12-14T00:36:20.365Z,-6.49
2022-12-14T00:41:22.272Z,-6.48
2022-12-14T00:46:26.086Z,-6.46
2022-12-14T00:51:32.819Z,-6.48
2022-12-14T00:56:35.822Z,-6.49
2022-12-14T01:01:37.719Z,-6.52
2022-12-14T01:06:43.696Z,-6.53
2022-12-14T01:11:48.168Z,-6.55
2022-12-14T01:16:50.076Z,-6.64
2022-12-14T01:21:54.198Z,-6.76
2022-12-14T01:26:59.227Z,-6.86
2022-12-14T01:32:05.924Z,-6.95
2022-12-14T01:37:07.621Z,-7.00
2022-12-14T01:42:13.612Z,-6.93
2022-12-14T01:47:19.695Z,-6.99
2022-12-14T01:52:30.595Z,-6.99
2022-12-14T01:57:41.682Z,-6.97
2022-12-14T02:02:49.406Z,-7.00
2022-12-14T02:07:53.312Z,-7.05
2022-12-14T02:13:12.104Z,-7.06
2022-12-14T02:18:24.995Z,-7.19
2022-12-14T02:23:36.985Z,-7.17
2022-12-14T02:28:44.731Z,-7.20
2022-12-14T02:34:23.825Z,-7.21
2022-12-14T02:39:51.734Z,-7.22
2022-12-14T02:45:09.020Z,-7.24
2022-12-14T02:50:37.358Z,-7.22
2022-12-14T02:55:51.315Z,-7.30
2022-12-14T03:00:58.638Z,-7.27
2022-12-14T03:06:04.921Z,-7.37
2022-12-14T03:11:09.890Z,-7.36
2022-12-14T03:21:48.154Z,-7.36
2022-12-14T03:26:56.979Z,-7.58
2022-12-14T03:32:05.820Z,-7.77
2022-12-14T03:37:13.960Z,-7.83
2022-12-14T03:42:22.989Z,-7.83
2022-12-14T03:47:44.969Z,-7.81
2022-12-14T03:53:24.163Z,-7.87
2022-12-14T03:58:39.285Z,-7.92
2022-12-14T04:04:13.406Z,-7.88
2022-12-14T04:09:35.157Z,-7.82
2022-12-14T04:15:05.741Z,-7.80
2022-12-14T04:20:31.161Z,-7.81
2022-12-14T04:25:54.066Z,-7.85
2022-12-14T04:31:15.770Z,-7.80
2022-12-14T04:36:29.082Z,-7.83
2022-12-14T04:41:35.116Z,-7.89
2022-12-14T04:46:41.009Z,-7.95
2022-12-14T04:51:51.055Z,-8.06
2022-12-14T04:57:34.054Z,-8.23
2022-12-14T05:03:05.934Z,-8.23
2022-12-14T05:08:19.002Z,-8.23
2022-12-14T05:13:26.169Z,-8.19
2022-12-14T05:18:30.328Z,-8.17
2022-12-14T05:23:32.063Z,-8.22
2022-12-14T05:28:34.006Z,-8.27
2022-12-14T05:33:35.701Z,-8.16
2022-12-14T05:38:39.833Z,-8.29
2022-12-14T05:43:43.868Z,-8.35
2022-12-14T05:48:49.500Z,-8.34
2022-12-14T05:53:54.861Z,-8.25
2022-12-14T05:58:56.631Z,-8.42
2022-12-14T06:04:00.709Z,-8.56
2022-12-14T06:09:10.273Z,-8.56
2022-12-14T06:14:15.741Z,-8.44
2022-12-14T06:19:21.851Z,-8.40
2022-12-14T06:24:25.709Z,-8.43
2022-12-14T06:29:27.441Z,-8.50
2022-12-14T06:34:29.988Z,-8.53
2022-12-14T06:39:36.330Z,-8.61
2022-12-14T06:44:38.195Z,-8.63
2022-12-14T06:49:42.622Z,-8.58
2022-12-14T06:54:44.930Z,-8.55
2022-12-14T06:59:50.865Z,-8.55
2022-12-14T07:04:58.657Z,-8.67
2022-12-14T07:10:03.932Z,-8.72
2022-12-14T07:15:06.286Z,-8.43
2022-12-14T07:20:12.822Z,-8.41
2022-12-14T07:25:17.907Z,-8.37
2022-12-14T07:30:21.962Z,-8.24
2022-12-14T07:35:28.024Z,-8.23
2022-12-14T07:40:33.964Z,-8.25
2022-12-14T07:45:38.227Z,-8.29
2022-12-14T07:50:40.082Z,-8.32
2022-12-14T07:55:41.857Z,-8.22
2022-12-14T08:00:47.934Z,-8.20
2022-12-14T08:05:49.889Z,-8.12
2022-12-14T08:10:54.601Z,-8.02
2022-12-14T08:16:06.814Z,-7.96
2022-12-14T08:21:12.714Z,-7.85
2022-12-14T08:26:20.914Z,-7.77
2022-12-14T08:31:25.451Z,-7.68
2022-12-14T08:36:30.353Z,-7.59
2022-12-14T08:41:32.413Z,-7.48
2022-12-14T08:46:38.272Z,-7.34
2022-12-14T08:51:40.277Z,-7.23
2022-12-14T08:56:45.083Z,-7.10
2022-12-14T09:01:48.928Z,-6.98
2022-12-14T09:06:54.469Z,-6.87
2022-12-14T09:12:06.589Z,-6.79
2022-12-14T09:17:11.932Z,-6.68
2022-12-14T09:22:17.523Z,-6.54
2022-12-14T09:27:22.541Z,-6.40
2022-12-14T09:32:27.148Z,-6.23
2022-12-14T09:37:32.532Z,-6.09
2022-12-14T09:42:50.733Z,-5.95
2022-12-14T09:48:19.043Z,-5.80
2022-12-14T09:53:23.519Z,-5.67
2022-12-14T09:58:30.281Z,-5.53
2022-12-14T10:03:58.445Z,-5.42
2022-12-14T10:09:15.192Z,-5.28
2022-12-14T10:14:22.216Z,-5.16
2022-12-14T10:19:36.483Z,-5.05
2022-12-14T10:24:49.571Z,-4.94
2022-12-14T10:30:01.915Z,-4.86
2022-12-14T10:35:18.862Z,-4.72
2022-12-14T10:40:34.077Z,-4.60
2022-12-14T10:45:52.399Z,-4.45
2022-12-14T10:50:57.657Z,-4.36
2022-12-14T10:56:08.866Z,-4.26
2022-12-14T11:01:14.473Z,-4.17
2022-12-14T11:06:19.402Z,-4.04
2022-12-14T11:11:23.372Z,-3.92
2022-12-14T11:16:39.983Z,-3.72
2022-12-14T11:21:41.876Z,-1.81
2022-12-14T11:26:46.642Z,-0.43
2022-12-14T11:31:55.392Z,0.67
2022-12-14T11:37:11.528Z,1.66
2022-12-14T11:42:20.127Z,2.48
2022-12-14T11:47:24.426Z,2.93
2022-12-14T11:52:43.096Z,3.49
2022-12-14T11:57:56.321Z,4.05
2022-12-14T12:03:06.422Z,4.50
2022-12-14T12:08:22.847Z,4.78
2022-12-14T12:13:29.096Z,4.63
2022-12-14T12:18:46.795Z,4.45
2022-12-14T12:24:41.652Z,3.80
2022-12-14T12:30:03.733Z,3.59
2022-12-14T12:35:15.638Z,3.53
2022-12-14T12:40:37.753Z,3.58
2022-12-14T12:45:50.354Z,3.51
2022-12-14T12:51:01.325Z,3.48
2022-12-14T12:56:06.779Z,3.49
2022-12-14T13:01:37.568Z,3.56
2022-12-14T13:06:45.602Z,3.67
2022-12-14T13:11:49.111Z,3.74
2022-12-14T13:16:51.267Z,4.03
2022-12-14T13:22:03.346Z,4.28
2022-12-14T13:27:40.738Z,4.41
2022-12-14T13:33:06.380Z,4.50
2022-12-14T13:38:33.687Z,4.45
2022-12-14T13:44:04.479Z,4.36
2022-12-14T13:49:15.304Z,4.43
2022-12-14T13:54:27.786Z,4.18
2022-12-14T13:59:37.717Z,4.21
2022-12-14T14:04:44.275Z,3.98
2022-12-14T14:09:58.685Z,3.55
2022-12-14T14:15:00.449Z,3.00
2022-12-14T14:20:26.774Z,2.26
2022-12-14T14:25:34.517Z,1.68
2022-12-14T14:30:43.152Z,1.23
2022-12-14T14:35:44.899Z,0.91
2022-12-14T14:41:16.191Z,0.63
2022-12-14T14:46:23.152Z,0.31
2022-12-14T14:51:35.221Z,0.08
2022-12-14T14:56:38.428Z,-0.19
2022-12-14T15:01:45.789Z,-0.47
2022-12-14T15:06:51.202Z,-0.16
2022-12-14T15:12:04.215Z,-0.74
2022-12-14T15:17:22.873Z,-1.04
2022-12-14T15:22:30.620Z,-1.28
2022-12-14T15:27:37.304Z,-1.55
2022-12-14T15:32:48.074Z,-1.74
2022-12-14T15:37:59.969Z,-1.85
2022-12-14T15:43:18.044Z,-2.02
2022-12-14T15:48:23.759Z,-2.22
2022-12-14T15:53:40.846Z,-2.41
2022-12-14T15:58:48.329Z,-2.58
2022-12-14T16:03:58.785Z,-2.70
2022-12-14T16:09:09.032Z,-2.79
2022-12-14T16:14:21.891Z,-2.95
2022-12-14T16:19:28.146Z,-3.08
2022-12-14T16:24:31.558Z,-3.30
2022-12-14T16:29:34.104Z,-3.50
2022-12-14T16:34:41.158Z,-3.56
2022-12-14T16:39:47.788Z,-3.70
2022-12-14T16:44:53.848Z,-3.78
2022-12-14T16:50:00.179Z,-3.82
2022-12-14T16:55:16.256Z,-3.83
2022-12-14T17:00:36.105Z,-3.91
2022-12-14T17:05:42.874Z,-3.98
2022-12-14T17:10:47.456Z,-4.02
2022-12-14T17:16:01.093Z,-4.03
2022-12-14T17:21:06.401Z,-4.17
2022-12-14T17:26:28.103Z,-4.22
2022-12-14T17:31:32.427Z,-4.30
2022-12-14T17:36:36.417Z,-4.35
2022-12-14T17:41:41.207Z,-4.43
2022-12-14T17:46:44.439Z,-4.48
2022-12-14T17:51:50.668Z,-4.58
2022-12-14T17:56:57.004Z,-4.53
2022-12-14T18:02:02.087Z,-4.64
2022-12-14T18:07:06.804Z,-4.54
2022-12-14T18:12:23.025Z,-4.68
2022-12-14T18:17:28.186Z,-4.90
2022-12-14T18:22:37.417Z,-5.03
2022-12-14T18:27:39.156Z,-4.94
2022-12-14T18:32:45.718Z,-4.94
2022-12-14T18:37:51.090Z,-4.99
2022-12-14T18:42:55.351Z,-5.08
2022-12-14T18:48:02.035Z,-5.06
2022-12-14T18:53:16.834Z,-5.11
2022-12-14T18:58:25.442Z,-5.19
2022-12-14T19:03:33.315Z,-5.28
2022-12-14T19:08:38.191Z,-5.26
2022-12-14T19:13:39.977Z,-5.25
2022-12-14T19:18:47.878Z,-5.26
2022-12-14T19:23:49.506Z,-5.23
2022-12-14T19:28:53.551Z,-5.25
2022-12-14T19:33:55.792Z,-5.25
2022-12-14T19:38:59.066Z,-5.23
2022-12-14T19:44:08.462Z,-5.26
2022-12-14T19:49:14.715Z,-5.32
2022-12-14T19:54:18.792Z,-5.38
2022-12-14T19:59:20.473Z,-5.42
2022-12-14T20:04:22.999Z,-5.38
2022-12-14T20:09:27.732Z,-5.41
2022-12-14T20:14:31.792Z,-5.43
2022-12-14T20:19:36.670Z,-5.46
2022-12-14T20:24:40.825Z,-5.48
2022-12-14T20:29:44.796Z,-5.50
2022-12-14T20:34:46.604Z,-5.53
2022-12-14T20:39:50.248Z,-5.56
2022-12-14T20:44:55.392Z,-5.58
2022-12-14T20:50:01.934Z,-5.64
2022-12-14T20:55:08.865Z,-5.62
2022-12-14T21:00:11.236Z,-5.57
2022-12-14T21:05:18.211Z,-5.54
2022-12-14T21:10:25.988Z,-5.46
2022-12-14T21:15:30.930Z,-5.31
2022-12-14T21:20:35.011Z,-5.18
2022-12-14T21:25:44.227Z,-5.11
2022-12-14T21:30:48.284Z,-5.09
2022-12-14T21:35:52.554Z,-5.12
2022-12-14T21:41:17.802Z,-5.25
2022-12-14T21:46:20.060Z,-5.38
2022-12-14T21:51:24.422Z,-5.35
2022-12-14T21:56:46.280Z,-5.27
2022-12-14T22:01:52.962Z,-5.13
2022-12-14T22:06:55.219Z,-5.02
2022-12-14T22:11:59.225Z,-4.93
2022-12-14T22:17:00.995Z,-4.90
2022-12-14T22:22:03.454Z,-4.83
2022-12-14T22:27:08.160Z,-4.78
2022-12-14T22:32:11.843Z,-4.84
2022-12-14T22:37:19.287Z,-4.82
2022-12-14T22:42:23.249Z,-4.85
2022-12-14T22:47:29.086Z,-4.86
2022-12-14T22:52:33.047Z,-4.82
2022-12-14T22:57:41.441Z,-4.84
2022-12-14T23:02:48.990Z,-4.96
2022-12-14T23:07:53.330Z,-5.07
2022-12-14T23:13:20.902Z,-5.16
2022-12-14T23:18:40.897Z,-5.23
2022-12-14T23:24:02.719Z,-5.25
2022-12-14T23:29:26.002Z,-5.32
2022-12-14T23:34:47.895Z,-5.42
2022-12-14T23:40:10.610Z,-5.47
2022-12-14T23:45:30.861Z,-5.56
2022-12-14T23:50:51.177Z,-5.55
2022-12-14T23:56:12.477Z,-5.63
